Have a Safe July 4th! 

Flight Track Log - Related Links

Times and Time Zones

All times are in EDT time to prevent confusion due to time zone crossing. See the QXE2470 flight status page for this flight to view local times or setup timezone preferences in your user account.

Time Position Orientation Groundspeed Altitude Reporting Facility
EDT Latitude Longitude Course Direction KTS MPH feet Rate Location/Type
Thu 10:46:00 PM 46.0214 -122.6554 350° North  Level FlightAware Approximate
Thu 10:47:00 PM 46.0943 -122.6689 352° North  Level FlightAware Approximate
Thu 10:48:00 PM 46.1673 -122.6834 354° North  Level FlightAware Approximate
Thu 10:49:00 PM 46.2407 -122.6939 354° North  Level FlightAware Approximate
Thu 10:50:00 PM 46.3125 -122.7146 341° North  Level FlightAware Approximate
Thu 10:51:00 PM 46.3859 -122.7198 358° North  Level FlightAware Approximate
Thu 10:52:00 PM 46.4595 -122.7231 358° North  Level FlightAware Approximate
Thu 10:53:00 PM 46.5332 -122.7265 358° North  Level FlightAware Approximate
Thu 10:54:00 PM 46.6068 -122.7298 358° North  Level FlightAware Approximate
Thu 10:55:00 PM 46.6805 -122.7332 358° North  Level FlightAware Approximate
Thu 10:56:00 PM 46.7541 -122.7333 North  Level FlightAware Approximate
Thu 10:57:00 PM 46.7995 -122.7117 42° Northeast  Level FlightAware Approximate
Thu 10:58:00 PM 46.8378 -122.6622 34° Northeast  Level FlightAware Approximate
Thu 10:59:00 PM 46.8928 -122.5985 42° Northeast  Level FlightAware Approximate
Thu 11:00:00 PM 46.9502 -122.5416 19° North  Level FlightAware Approximate
Thu 11:01:00 PM 47.0174 -122.5123 10° North  Level FlightAware Approximate
Thu 11:02:00 PM 47.0859 -122.4904 19° North  Level FlightAware Approximate
Thu 11:03:00 PM 47.1549 -122.4724 North  Level FlightAware Approximate
Thu 11:04:00 PM 47.2249 -122.4656 North  Level FlightAware Approximate
Thu 11:05:00 PM 47.2950 -122.4569 North  Level FlightAware Approximate
Thu 11:06:00 PM 47.3682 -122.4753 350° North  Level FlightAware Approximate
Thu 11:07:00 PM 47.4123 -122.3871 13° North  Level Estimated
Thu 11:08:00 PM 47.4499 -122.3118 110° East  Level Estimated
Thu 11:09:00 PM 47.4499 -122.3118 132° Southeast  Level Estimated
Thu 11:10:00 PM 47.4499 -122.3118 132° Southeast  Level Estimated
Thu 11:11:00 PM 47.4499 -122.3118 132° Southeast  Level Estimated
Thu 11:12:00 PM 47.4499 -122.3118 132° Southeast  Level Estimated
Thu 11:13:00 PM 47.4499 -122.3118 132° Southeast  Level Estimated
Thu 11:14:00 PM 47.4499 -122.3118 180° South  Level Estimated
Thu 11:15:00 PM 47.4499 -122.3118 180° South  Level Estimated
Thu 11:16:00 PM 47.4499 -122.3118 180° South  Level Estimated
Thu 11:17:00 PM 47.4499 -122.3118 180° South  Level Estimated
Thu 11:18:00 PM 47.4499 -122.3118 180° South  Level Estimated
Thu 11:19:00 PM 47.4499 -122.3118 180° South  Level Estimated

Login

Don't have an account? Register now (free) for customized features, flight alerts, and more!